Terminal Aerodrome Forecast
Issued by NWS

Home | Current Version | Previous Version | Text Only | Print | Product List | Glossary On
Versions: 1 2 3 4 5 6 7 8 9 10 11 12 13 14 15 16
000
FTUS43 KDTX 280250 AAA
TAFDET
TAF AMD
KDET 280250Z 2803/2824 30008KT P6SM SCT050 BKN200
      TEMPO 2803/2805 6SM -SHSN BKN035 BKN050
     FM281400 22006KT P6SM OVC120
     FM281900 19008KT 6SM -SN BKN040 OVC080
     FM282200 17006KT 2SM -SN BR BKN018 OVC040=

USA.gov is the U.S. government's official web portal to all federal, state and local government web resources and services.